Thunder radar more information blitzortung!


Radar de pluja more information rain snow radar


Visita la nostra xarxa de llocs de meteo:

Template documentation
and downloads

And another site



No particular awareness of the weather is required.    There are no Weather-warnings

Pagina Historial Weather Underground text

Diari Resum Octubre 26, 2017 Unitats:  Mètric    Imperial   Tant
« Previous Dia
SegĂźent Dia »
Diari Setmana Mensual Anual Personalitzada
  Maxima: Minima: Media:
Temperatura: -17.8 °C -11.3 °C -7.7 °C
Punt de rosada: -17.8 °C -12.2 °C -9.6 °C
Humitat: Humidity % 66 % 81 %
Wind Speed: 0 km/h 0 km/h 5.6 km/h
RĂ fegues de vent: 0 km/h - -
Vent:- - SSE
Pression baro: 0 hPa 34703.1 hPa -
Precipitacions: 0 mm    
Historical Graphs
 
 
Dades de taula per Octubre 26, 2017
Temps Temperatura Punt de rosada Pression baro Vent Wind Speed RĂ fegues de vent Humitat Rainfall Rate (Hourly)
-17.8 °C -17.8 °C 0 hPa Calm     Humidity % 0 mm
00:03 -9.3 °C -10.9 °C 34740.4 hPa Calm     83 % 0 mm
00:08 -9.3 °C -10.9 °C 34740.4 hPa Calm     83 % 0 mm
00:13 -9.3 °C -10.8 °C 34740.4 hPa Calm     84 % 0 mm
00:18 -9.3 °C -10.8 °C 34740.4 hPa Calm     84 % 0 mm
00:23 -9.3 °C -10.8 °C 34740.4 hPa Calm     84 % 0 mm
00:28 -9.3 °C -10.8 °C 34774.2 hPa Calm     84 % 0 mm
02:40 -11.2 °C -12.1 °C 34740.4 hPa Calm     90 % 0 mm
02:50 -11.2 °C -12.1 °C 34740.4 hPa NNW 2.6 km/h 2.6 km/h 90 % 0 mm
03:00 -11.3 °C -12.2 °C 34740.4 hPa Calm   2.6 km/h 90 % 0 mm
03:10 -11.3 °C -12.2 °C 34740.4 hPa Calm     90 % 0 mm
03:20 -11.3 °C -12.2 °C 34774.2 hPa Calm     90 % 0 mm
03:30 -11.2 °C -12.1 °C 34740.4 hPa Calm     90 % 0 mm
03:40 -11.2 °C -11.9 °C 34740.4 hPa Calm     91 % 0 mm
03:50 -11.1 °C -11.9 °C 34774.2 hPa Calm     91 % 0 mm
04:00 -11.1 °C -11.9 °C 34774.2 hPa Calm     91 % 0 mm
04:10 -11.3 °C -12.2 °C 34774.2 hPa Calm     90 % 0 mm
04:20 -11.3 °C -12.2 °C 34774.2 hPa Calm   2.6 km/h 90 % 0 mm
04:30 -11.3 °C -12.1 °C 34808.1 hPa Calm   2.6 km/h 91 % 0 mm
04:40 -11.2 °C -12 °C 34808.1 hPa Calm     91 % 0 mm
04:50 -11.1 °C -11.8 °C 34808.1 hPa Calm     91 % 0 mm
05:00 -11.1 °C -11.8 °C 34808.1 hPa Calm   2.6 km/h 91 % 0 mm
05:10 -10.9 °C -11.6 °C 34808.1 hPa Calm     92 % 0 mm
10:11 -10.7 °C -11.4 °C 34808.1 hPa Calm     92 % 0 mm
10:16 -10.7 °C -11.3 °C 34808.1 hPa WNW 3.1 km/h   92 % 0 mm
10:21 -10.6 °C -11.3 °C 34808.1 hPa Calm     92 % 0 mm
10:26 -10.6 °C -11.3 °C 34808.1 hPa Calm     92 % 0 mm
10:31 -10.4 °C -11.1 °C 34808.1 hPa Calm     93 % 0 mm
10:36 -10.4 °C -11 °C 34808.1 hPa Calm     93 % 0 mm
10:41 -10.3 °C -10.9 °C 34808.1 hPa ENE 3.1 km/h 3.1 km/h 93 % 0 mm
10:46 -10.3 °C -10.9 °C 34808.1 hPa SE 5.6 km/h   93 % 0 mm
10:51 -10.3 °C -10.9 °C 34808.1 hPa ESE 3.1 km/h 3.1 km/h 93 % 0 mm
10:56 -10.2 °C -10.8 °C 34808.1 hPa East 3.1 km/h   93 % 0 mm
11:01 -10.2 °C -10.9 °C 34808.1 hPa East 6.3 km/h 6.3 km/h 92 % 0 mm
11:06 -10.2 °C -10.9 °C 34808.1 hPa NE 6 km/h 6 km/h 92 % 0 mm
11:11 -10.2 °C -10.9 °C 34808.1 hPa ENE 9 km/h 9 km/h 92 % 0 mm
11:16 -10.1 °C -10.8 °C 34808.1 hPa NE 6 km/h 6 km/h 92 % 0 mm
11:21 -10 °C -10.7 °C 34808.1 hPa NE 6.3 km/h 6.3 km/h 92 % 0 mm
11:26 -9.8 °C -10.6 °C 34808.1 hPa NW 3.1 km/h 4.2 km/h 92 % 0 mm
11:31 -9.8 °C -10.5 °C 34808.1 hPa WNW 4.2 km/h 4.2 km/h 92 % 0 mm
11:36 -9.7 °C -10.4 °C 34808.1 hPa North 6.3 km/h 6.3 km/h 92 % 0 mm
11:46 -9.4 °C -10.1 °C 34808.1 hPa WSW 8.5 km/h 8.5 km/h 92 % 0 mm
11:51 -9.3 °C -10.1 °C 34808.1 hPa NNW 4.2 km/h 4.2 km/h 92 % 0 mm
11:56 -9.2 °C -9.9 °C 34808.1 hPa WNW 4.2 km/h 4.2 km/h 92 % 0 mm
12:01 -9.1 °C -9.8 °C 34808.1 hPa WSW 7.6 km/h 7.6 km/h 92 % 0 mm
12:06 -9 °C -9.7 °C 34808.1 hPa WNW 3.1 km/h   92 % 0 mm
12:11 -8.9 °C -9.8 °C 34808.1 hPa WSW 9 km/h 9 km/h 91 % 0 mm
12:16 -8.8 °C -9.6 °C 34808.1 hPa SSE 6 km/h   91 % 0 mm
12:21 -8.7 °C -9.5 °C 34808.1 hPa WSW 9 km/h 9 km/h 91 % 0 mm
12:26 -8.6 °C -9.5 °C 34808.1 hPa West 6 km/h 6 km/h 90 % 0 mm
12:31 -8.4 °C -9.3 °C 34808.1 hPa WSW 6 km/h 6 km/h 90 % 0 mm
12:36 -8.1 °C -9 °C 34808.1 hPa SW 6.8 km/h 6.8 km/h 90 % 0 mm
12:41 -7.8 °C -8.8 °C 34774.2 hPa SSW 6 km/h 6 km/h 89 % 0 mm
12:46 -7.6 °C -8.7 °C 34774.2 hPa SW 6.3 km/h 6.3 km/h 88 % 0 mm
12:51 -7.4 °C -8.7 °C 34774.2 hPa WSW 6.3 km/h 6.3 km/h 87 % 0 mm
12:56 -7.4 °C -8.8 °C 34774.2 hPa WSW 3.1 km/h 3.7 km/h 86 % 0 mm
13:01 -7.3 °C -8.7 °C 34774.2 hPa NNE 4.2 km/h 4.2 km/h 85 % 0 mm
13:06 -7.2 °C -8.8 °C 34774.2 hPa West 6 km/h 6 km/h 84 % 0 mm
13:11 -7 °C -8.7 °C 34774.2 hPa NE 6 km/h 6 km/h 83 % 0 mm
13:16 -6.7 °C -8.5 °C 34774.2 hPa SSW 9 km/h 9 km/h 82 % 0 mm
13:21 -6.6 °C -8.7 °C 34774.2 hPa SW 6.3 km/h 6.3 km/h 79 % 0 mm
13:26 -6.6 °C -8.8 °C 34774.2 hPa East 9 km/h 9 km/h 78 % 0 mm
13:31 -6.4 °C -8.6 °C 34774.2 hPa ESE 6.3 km/h 6.3 km/h 78 % 0 mm
13:36 -6.3 °C -8.5 °C 34774.2 hPa SSE 11.9 km/h 11.9 km/h 78 % 0 mm
13:41 -6.4 °C -8.8 °C 34774.2 hPa ESE 7.6 km/h 7.6 km/h 76 % 0 mm
13:46 -6.3 °C -8.7 °C 34774.2 hPa East 6.8 km/h 6.8 km/h 76 % 0 mm
13:47 -6.3 °C -8.7 °C 34774.2 hPa ESE 6.3 km/h 6.3 km/h 76 % 0 mm
13:52 -6.3 °C -8.8 °C 34774.2 hPa ESE 9 km/h 9 km/h 75 % 0 mm
13:57 -6.2 °C -8.9 °C 34774.2 hPa ESE 9 km/h 9 km/h 74 % 0 mm
14:02 -6.1 °C -8.7 °C 34774.2 hPa NNE 6.8 km/h 6.8 km/h 75 % 0 mm
14:07 -6.1 °C -8.6 °C 34774.2 hPa ENE 9 km/h 9 km/h 75 % 0 mm
14:12 -5.9 °C -8.6 °C 34740.4 hPa ENE 6 km/h 6 km/h 74 % 0 mm
14:17 -5.9 °C -8.7 °C 34740.4 hPa ESE 8.5 km/h 8.5 km/h 73 % 0 mm
14:22 -5.9 °C -8.9 °C 34740.4 hPa ESE 9 km/h 9 km/h 71 % 0 mm
14:27 -5.8 °C -8.8 °C 34740.4 hPa ENE 9 km/h 9 km/h 71 % 0 mm
14:32 -5.7 °C -8.7 °C 34740.4 hPa South 9 km/h 9 km/h 71 % 0 mm
14:37 -5.4 °C -8.5 °C 34740.4 hPa SW 9 km/h 9 km/h 71 % 0 mm
14:42 -5.3 °C -8.4 °C 34740.4 hPa SSE 8.5 km/h 8.5 km/h 71 % 0 mm
14:47 -5.2 °C -8.3 °C 34740.4 hPa SW 9 km/h 9 km/h 71 % 0 mm
14:52 -5.3 °C -8.7 °C 34740.4 hPa WSW 11.9 km/h 11.9 km/h 68 % 0 mm
14:57 -5.2 °C -8.6 °C 34703.1 hPa ESE 11.1 km/h 11.1 km/h 69 % 0 mm
15:02 -5.4 °C -8.9 °C 34703.1 hPa ESE 9 km/h 9 km/h 68 % 0 mm
15:07 -5.4 °C -8.7 °C 34703.1 hPa ESE 6.8 km/h 6.8 km/h 69 % 0 mm
15:12 -5.4 °C -8.7 °C 34740.4 hPa ESE 11.9 km/h 11.9 km/h 69 % 0 mm
15:17 -5.3 °C -8.6 °C 34740.4 hPa East 15 km/h 15 km/h 69 % 0 mm
15:22 -5.3 °C -8.7 °C 34740.4 hPa ESE 11.9 km/h 11.9 km/h 68 % 0 mm
15:27 -4.9 °C -8.4 °C 34740.4 hPa SSE 6.3 km/h 6.8 km/h 68 % 0 mm
15:37 -5.1 °C -8.7 °C 34740.4 hPa East 17.9 km/h 17.9 km/h 67 % 0 mm
15:42 -5.1 °C -8.5 °C 34703.1 hPa ESE 11.9 km/h 11.9 km/h 68 % 0 mm
15:47 -5 °C -8.6 °C 34703.1 hPa ENE 9.3 km/h 9.3 km/h 67 % 0 mm
15:52 -4.9 °C -8.6 °C 34703.1 hPa ESE 9 km/h 9 km/h 66 % 0 mm
15:57 -4.9 °C -8.5 °C 34740.4 hPa NNE 11.9 km/h 11.9 km/h 67 % 0 mm
16:02 -4.8 °C -8.6 °C 34740.4 hPa ESE 6.8 km/h 7.6 km/h 66 % 0 mm
16:07 -4.9 °C -8.6 °C 34740.4 hPa ESE 9.3 km/h 11.6 km/h 66 % 0 mm
16:12 -4.9 °C -8.7 °C 34740.4 hPa East 15 km/h 15 km/h 66 % 0 mm
16:17 -5 °C -8.6 °C 34740.4 hPa ESE 15 km/h 15 km/h 67 % 0 mm
16:22 -5 °C -8.6 °C 34740.4 hPa East 11.9 km/h 11.9 km/h 67 % 0 mm
16:32 -5.1 °C -8.7 °C 34740.4 hPa ESE 15.6 km/h 15.6 km/h 67 % 0 mm
16:37 -5.2 °C -8.7 °C 34740.4 hPa ESE 15 km/h 15 km/h 67 % 0 mm
16:42 -5.2 °C -8.7 °C 34740.4 hPa ESE 17.9 km/h 17.9 km/h 67 % 0 mm
16:47 -5.2 °C -8.7 °C 34740.4 hPa ESE 15 km/h 15 km/h 68 % 0 mm
16:52 -5.3 °C -8.7 °C 34740.4 hPa East 23.8 km/h 23.8 km/h 68 % 0 mm
16:57 -5.3 °C -8.7 °C 34740.4 hPa East 19.2 km/h 19.2 km/h 68 % 0 mm
17:02 -5.3 °C -8.8 °C 34740.4 hPa East 15 km/h 15 km/h 68 % 0 mm
17:07 -5.3 °C -8.7 °C 34740.4 hPa ESE 15 km/h 15 km/h 69 % 0 mm
17:12 -5.4 °C -8.7 °C 34740.4 hPa SE 15.3 km/h 15.3 km/h 69 % 0 mm
17:17 -5.4 °C -8.7 °C 34740.4 hPa East 11.9 km/h 11.9 km/h 69 % 0 mm
17:22 -5.4 °C -8.8 °C 34740.4 hPa ESE 11.9 km/h 11.9 km/h 69 % 0 mm
17:27 -5.4 °C -8.7 °C 34740.4 hPa ESE 9.3 km/h 9.3 km/h 70 % 0 mm
17:32 -5.4 °C -8.7 °C 34740.4 hPa East 15 km/h 15 km/h 70 % 0 mm
17:37 -5.4 °C -8.7 °C 34740.4 hPa ENE 9 km/h 9 km/h 70 % 0 mm
17:42 -5.4 °C -8.7 °C 34740.4 hPa ESE 11.9 km/h 11.9 km/h 70 % 0 mm
17:47 -5.5 °C -8.6 °C 34740.4 hPa ESE 11.9 km/h 11.9 km/h 71 % 0 mm
17:52 -5.6 °C -8.6 °C 34740.4 hPa ESE 9 km/h 9 km/h 71 % 0 mm
17:57 -5.6 °C -8.6 °C 34740.4 hPa ESE 11.9 km/h 11.9 km/h 71 % 0 mm
18:02 -5.6 °C -8.6 °C 34740.4 hPa ESE 6 km/h 6.8 km/h 72 % 0 mm
18:07 -5.7 °C -8.5 °C 34740.4 hPa ESE 10.3 km/h 10.3 km/h 73 % 0 mm
18:12 -5.8 °C -8.6 °C 34740.4 hPa ESE 9 km/h 9 km/h 73 % 0 mm
18:17 -5.9 °C -8.7 °C 34740.4 hPa East 11.9 km/h 11.9 km/h 73 % 0 mm
18:22 -5.9 °C -8.6 °C 34740.4 hPa ESE 7.6 km/h 7.6 km/h 74 % 0 mm
18:27 -6.1 °C -8.7 °C 34740.4 hPa SE 9 km/h 9 km/h 74 % 0 mm
18:32 -6.1 °C -8.8 °C 34740.4 hPa ESE 9 km/h 9 km/h 74 % 0 mm
18:37 -6.2 °C -8.8 °C 34740.4 hPa ENE 9 km/h 9 km/h 75 % 0 mm
18:42 -6.3 °C -8.8 °C 34740.4 hPa ESE 9 km/h 9 km/h 75 % 0 mm
18:47 -6.3 °C -8.8 °C 34740.4 hPa ENE 6 km/h 6 km/h 76 % 0 mm
18:52 -6.4 °C -8.8 °C 34740.4 hPa NE 3.1 km/h   76 % 0 mm
18:57 -6.4 °C -8.9 °C 34740.4 hPa Calm     76 % 0 mm
19:02 -6.5 °C -8.8 °C 34740.4 hPa Calm     77 % 0 mm
19:07 -6.6 °C -8.8 °C 34740.4 hPa Calm     77 % 0 mm
19:12 -6.6 °C -8.9 °C 34774.2 hPa Calm     77 % 0 mm
19:17 -6.7 °C -9.1 °C 34774.2 hPa Calm     77 % 0 mm
19:22 -6.8 °C -9 °C 34774.2 hPa Calm     78 % 0 mm
19:27 -6.8 °C -9 °C 34774.2 hPa WNW 5.1 km/h   78 % 0 mm
19:32 -6.9 °C -9.1 °C 34774.2 hPa West 3.1 km/h   78 % 0 mm
19:37 -6.9 °C -9.1 °C 34774.2 hPa WSW 6 km/h   78 % 0 mm
19:42 -6.9 °C -9.1 °C 34774.2 hPa West 9 km/h 9 km/h 78 % 0 mm
19:47 -7 °C -9.2 °C 34774.2 hPa West 5.1 km/h 5.1 km/h 78 % 0 mm
19:52 -7 °C -9.2 °C 34774.2 hPa SW 3.7 km/h 3.7 km/h 78 % 0 mm
19:57 -7.1 °C -9.2 °C 34774.2 hPa WSW 3.7 km/h 3.7 km/h 78 % 0 mm
20:02 -7.1 °C -9.2 °C 34774.2 hPa WSW 6 km/h   79 % 0 mm
20:07 -7.2 °C -9.2 °C 34774.2 hPa WSW 4.2 km/h 4.2 km/h 79 % 0 mm
20:12 -7.2 °C -9.3 °C 34774.2 hPa WSW 3.7 km/h 3.7 km/h 79 % 0 mm
20:17 -7.2 °C -9.3 °C 34774.2 hPa WSW 3.1 km/h   79 % 0 mm
20:22 -7.3 °C -9.3 °C 34774.2 hPa Calm     80 % 0 mm
20:27 -7.4 °C -9.2 °C 34774.2 hPa Calm     81 % 0 mm
20:32 -7.4 °C -9.3 °C 34774.2 hPa Calm     81 % 0 mm
20:37 -7.5 °C -9.3 °C 34774.2 hPa Calm     81 % 0 mm
20:42 -7.5 °C -9.3 °C 34774.2 hPa Calm     81 % 0 mm
20:47 -7.6 °C -9.3 °C 34774.2 hPa Calm     82 % 0 mm
20:52 -7.6 °C -9.3 °C 34774.2 hPa Calm     82 % 0 mm
20:57 -7.7 °C -9.4 °C 34808.1 hPa Calm     82 % 0 mm
21:02 -7.7 °C -9.4 °C 34808.1 hPa Calm     82 % 0 mm
21:07 -7.7 °C -9.4 °C 34808.1 hPa Calm     82 % 0 mm
21:12 -7.7 °C -9.3 °C 34808.1 hPa Calm     83 % 0 mm
21:17 -7.8 °C -9.4 °C 34808.1 hPa Calm     83 % 0 mm
21:22 -7.8 °C -9.4 °C 34808.1 hPa Calm     83 % 0 mm
21:27 -7.9 °C -9.5 °C 34808.1 hPa WSW 3.1 km/h 3.1 km/h 83 % 0 mm
21:32 -7.9 °C -9.5 °C 34808.1 hPa Calm     83 % 0 mm
21:37 -8 °C -9.6 °C 34808.1 hPa Calm     83 % 0 mm
21:42 -8.1 °C -9.6 °C 34808.1 hPa Calm     84 % 0 mm
21:47 -8.2 °C -9.7 °C 34808.1 hPa Calm     84 % 0 mm
21:52 -8.2 °C -9.7 °C 34808.1 hPa WSW 3.7 km/h 3.7 km/h 84 % 0 mm
21:57 -8.3 °C -9.8 °C 34808.1 hPa SW 6 km/h 6 km/h 84 % 0 mm
22:02 -8.3 °C -9.8 °C 34808.1 hPa Calm     84 % 0 mm
22:07 -8.3 °C -9.8 °C 34808.1 hPa Calm     85 % 0 mm
22:12 -8.3 °C -9.7 °C 34808.1 hPa West 6 km/h 6 km/h 85 % 0 mm
22:17 -8.3 °C -9.7 °C 34808.1 hPa West 6.3 km/h   85 % 0 mm
22:22 -8.2 °C -9.6 °C 34808.1 hPa WSW 6 km/h 6 km/h 85 % 0 mm
22:27 -8.2 °C -9.6 °C 34808.1 hPa WSW 3.7 km/h   85 % 0 mm
22:32 -8.2 °C -9.6 °C 34808.1 hPa WSW 3.1 km/h 3.1 km/h 86 % 0 mm
22:37 -8.2 °C -9.6 °C 34808.1 hPa West 6 km/h 6 km/h 86 % 0 mm
22:42 -8.2 °C -9.5 °C 34808.1 hPa Calm     86 % 0 mm
22:47 -8.2 °C -9.6 °C 34808.1 hPa WSW 6 km/h 6 km/h 86 % 0 mm
22:52 -8.2 °C -9.4 °C 34808.1 hPa West 6 km/h 6 km/h 87 % 0 mm
22:57 -8.2 °C -9.4 °C 34808.1 hPa Calm     87 % 0 mm
23:02 -8.2 °C -9.4 °C 34808.1 hPa West 5.1 km/h   87 % 0 mm
23:07 -8.2 °C -9.4 °C 34808.1 hPa WSW 6 km/h 6 km/h 87 % 0 mm
23:12 -8.2 °C -9.4 °C 34808.1 hPa WSW 6 km/h 6 km/h 87 % 0 mm
23:17 -8.2 °C -9.4 °C 34808.1 hPa WSW 6.3 km/h 6.3 km/h 87 % 0 mm
23:22 -8.3 °C -9.5 °C 34808.1 hPa SW 5.1 km/h 5.1 km/h 87 % 0 mm
23:27 -8.3 °C -9.6 °C 34808.1 hPa WSW 4.2 km/h 4.2 km/h 87 % 0 mm
23:32 -8.3 °C -9.6 °C 34808.1 hPa Calm     87 % 0 mm
23:37 -8.4 °C -9.6 °C 34808.1 hPa Calm     88 % 0 mm
23:42 -8.5 °C -9.6 °C 34808.1 hPa SW 6 km/h 6 km/h 88 % 0 mm
23:47 -8.5 °C -9.6 °C 34808.1 hPa SW 6 km/h 6 km/h 88 % 0 mm
23:50 -9.6 °C -10.2 °C 34740.4 hPa Calm     93 % 0 mm
23:52 -8.6 °C -9.7 °C 34808.1 hPa SW 6 km/h 6 km/h 88 % 0 mm
23:57 -8.7 °C -9.8 °C 34808.1 hPa SW 6 km/h 6 km/h 88 % 0 mm
Meteo Sesrovires
Elogis d' Weather Underground - 1.5 mb

Guio original per  Jim McMurry - jmcmurry@mwt.net Adaptat per a la plantilla per  Wim van der Kuil - Leuven-Template.eu

Trobareu la nostra informacio del temps tambe a:

Weather Underground

AWEKAS